Shiro, Texas
Current Conditions -  °F | °C
As of 4:53 AM on Wednesday 26 Nov 2014 (Local Time) from KUTS Reporting Station
Clear Clear  
Wind Chill:   Ceiling: Unl
Heat Index:   Visibility: 10mi
Dew Point:   Wind: 8mph
Humidity: 58%   Direction: 200°SSW
Pressure: 30.17"   Gusts: NA
Location:  30.61°N, 95.89°W
Report Text: KUTS 261053Z AUTO 20007KT 10SM CLR 09/01 A3017 RMK AO2 SLP213 T00890011
Loading
Personal Weather Stations






























Interactive Weather Map New forecast layout! Learn more

10-Day Weather Forecast

Advertisements
Track Severe Weather on mobile